Time;durP1;ratioP1;P1;durP2;ratioP2;P2;SDS_P1;SDS_P2;PMS_P1;PMS_P2;Temp;Humidity;BMP_temperature;BMP_pressure;BME280_temperature;BME280_humidity;BME280_pressure;Samples;Min_cycle;Max_cycle;Signal;HPM_P1;HPM_P2
2023/03/06 00:01:47;;;;;;;5.30;4.70;;;19.60;47.40;;;;;;4979895;28;20180;-72
2023/03/06 00:04:14;;;;;;;5.10;4.22;;;19.50;47.30;;;;;;5033382;23;20260;-68
2023/03/06 00:06:40;;;;;;;4.93;4.15;;;19.60;47.40;;;;;;5090660;28;20226;-68
2023/03/06 00:09:06;;;;;;;5.57;4.85;;;19.50;47.30;;;;;;5074054;28;20193;-68
2023/03/06 00:11:32;;;;;;;5.00;4.50;;;19.60;47.30;;;;;;5090138;28;20197;-68
2023/03/06 00:13:58;;;;;;;5.10;4.53;;;19.50;47.20;;;;;;5069722;28;20210;-68
2023/03/06 00:16:24;;;;;;;5.40;4.90;;;19.60;47.30;;;;;;5070018;28;20281;-69
2023/03/06 00:18:51;;;;;;;4.85;4.35;;;19.60;47.30;;;;;;5069805;28;20660;-69
2023/03/06 00:21:17;;;;;;;5.15;4.63;;;19.60;47.30;;;;;;5036554;28;20187;-68
2023/03/06 00:23:43;;;;;;;4.88;4.43;;;19.60;47.30;;;;;;5069543;28;20213;-68
2023/03/06 00:26:09;;;;;;;5.65;5.10;;;19.60;47.30;;;;;;5069714;28;20727;-68
2023/03/06 00:28:36;;;;;;;5.47;4.88;;;19.60;47.30;;;;;;5069365;28;20198;-68
2023/03/06 00:31:03;;;;;;;5.63;5.13;;;19.60;47.30;;;;;;5068785;28;20190;-69
2023/03/06 00:33:29;;;;;;;5.00;4.50;;;19.60;47.40;;;;;;5069600;28;20623;-68
2023/03/06 00:35:55;;;;;;;5.72;5.03;;;19.60;47.40;;;;;;5044725;28;20669;-68
2023/03/06 00:38:21;;;;;;;4.78;4.38;;;19.60;47.40;;;;;;5036349;28;20179;-68
2023/03/06 00:40:48;;;;;;;5.35;4.85;;;19.60;47.30;;;;;;5036424;28;20182;-68
2023/03/06 00:43:14;;;;;;;5.40;4.88;;;19.60;47.30;;;;;;5052632;28;20549;-68
2023/03/06 00:45:41;;;;;;;4.97;4.47;;;19.60;47.40;;;;;;5069146;28;20217;-68
2023/03/06 00:48:07;;;;;;;5.00;4.50;;;19.60;47.30;;;;;;5036057;28;20186;-69
2023/03/06 00:50:34;;;;;;;5.05;4.55;;;19.60;47.40;;;;;;5069210;28;20247;-68
2023/03/06 00:52:59;;;;;;;5.50;4.47;;;19.60;47.30;;;;;;5052269;28;20205;-69
2023/03/06 00:55:25;;;;;;;4.68;4.20;;;19.60;47.40;;;;;;5068970;28;20210;-68
2023/03/06 00:57:51;;;;;;;4.93;4.43;;;19.60;47.30;;;;;;5069318;28;20194;-69
2023/03/06 01:00:17;;;;;;;4.65;4.15;;;19.60;47.30;;;;;;5069256;28;20237;-69
2023/03/06 01:02:43;;;;;;;4.68;4.28;;;19.60;47.30;;;;;;5052241;28;20240;-68
2023/03/06 01:05:12;;;;;;;4.95;4.45;;;19.60;47.30;;;;;;5035491;28;20238;-68
2023/03/06 01:07:38;;;;;;;4.88;4.38;;;19.60;47.30;;;;;;5052070;28;20201;-68
2023/03/06 01:10:06;;;;;;;4.68;4.18;;;19.60;47.30;;;;;;5035453;28;20649;-68
2023/03/06 01:12:32;;;;;;;5.05;4.55;;;19.60;47.30;;;;;;5052405;28;20251;-68
2023/03/06 01:14:58;;;;;;;4.88;4.25;;;19.60;47.30;;;;;;5035640;28;20222;-68
2023/03/06 01:17:24;;;;;;;4.57;4.05;;;19.60;47.20;;;;;;5035149;28;20190;-68
2023/03/06 01:19:50;;;;;;;5.93;4.20;;;19.60;47.30;;;;;;5035292;28;20221;-69
2023/03/06 01:22:16;;;;;;;5.55;4.50;;;19.60;47.30;;;;;;5035411;28;20183;-68
2023/03/06 01:24:41;;;;;;;4.85;4.45;;;19.60;47.30;;;;;;5035056;28;20280;-68
2023/03/06 01:27:07;;;;;;;6.07;3.97;;;19.60;47.30;;;;;;5051798;28;20278;-68
2023/03/06 01:29:33;;;;;;;5.47;4.75;;;19.60;47.20;;;;;;5033678;28;20236;-69
2023/03/06 01:31:59;;;;;;;5.68;4.70;;;19.60;47.30;;;;;;5061247;28;20205;-69
2023/03/06 01:34:25;;;;;;;5.30;4.78;;;19.60;47.30;;;;;;5051692;28;20218;-69
2023/03/06 01:36:51;;;;;;;5.32;4.80;;;19.60;47.20;;;;;;5034935;28;20265;-69
2023/03/06 01:39:16;;;;;;;4.53;4.13;;;19.60;47.30;;;;;;5035022;28;20209;-68
2023/03/06 01:41:42;;;;;;;4.40;3.80;;;19.60;47.30;;;;;;5034790;28;20187;-69
2023/03/06 01:44:12;;;;;;;4.78;4.28;;;19.60;47.30;;;;;;5034893;28;20198;-69
2023/03/06 01:46:45;;;;;;;4.15;3.70;;;19.60;47.30;;;;;;5034712;28;20190;-69
2023/03/06 01:49:32;;;;;;;4.82;4.32;;;19.60;47.30;;;;;;5034724;28;20739;-69
2023/03/06 01:52:19;;;;;;;4.45;4.05;;;19.60;47.20;;;;;;5034811;28;20203;-69
2023/03/06 01:54:54;;;;;;;5.22;4.40;;;19.60;47.20;;;;;;5034577;28;20305;-68
2023/03/06 01:57:29;;;;;;;5.38;4.75;;;19.60;47.20;;;;;;5051170;28;20217;-69
2023/03/06 02:00:07;;;;;;;4.97;4.45;;;19.60;47.20;;;;;;5068051;28;20190;-69
2023/03/06 02:02:42;;;;;;;5.38;4.88;;;19.60;47.20;;;;;;5051298;28;20186;-68
2023/03/06 02:05:08;;;;;;;4.68;4.28;;;19.60;47.20;;;;;;5064961;28;20213;-68
2023/03/06 02:07:36;;;;;;;4.47;4.07;;;19.60;47.20;;;;;;5067622;28;20191;-69
2023/03/06 02:10:05;;;;;;;4.28;3.88;;;19.60;47.20;;;;;;5034695;28;20190;-69
2023/03/06 02:12:31;;;;;;;4.85;4.03;;;19.60;47.20;;;;;;5067594;28;20187;-69
2023/03/06 02:14:57;;;;;;;4.57;4.18;;;19.60;47.20;;;;;;5034226;28;20210;-68
2023/03/06 02:17:23;;;;;;;4.38;3.97;;;19.60;47.20;;;;;;5034145;28;20182;-68
2023/03/06 02:20:14;;;;;;;4.45;4.00;;;19.60;47.20;;;;;;5034314;28;20186;-69
2023/03/06 02:22:51;;;;;;;3.95;3.65;;;19.60;47.80;;;;;;5033945;28;20642;-68
2023/03/06 02:25:44;;;;;;;4.80;4.40;;;19.60;47.20;;;;;;5067483;28;20297;-69
2023/03/06 02:28:18;;;;;;;4.72;4.32;;;19.60;47.20;;;;;;5034292;28;20220;-69
2023/03/06 02:30:48;;;;;;;5.32;4.30;;;19.70;47.30;;;;;;5034174;28;20191;-69
2023/03/06 02:33:19;;;;;;;4.88;4.25;;;19.60;47.10;;;;;;5034292;28;20179;-69
2023/03/06 02:36:14;;;;;;;4.07;3.67;;;19.60;47.80;;;;;;5050572;28;20690;-69
2023/03/06 02:38:49;;;;;;;4.28;3.88;;;19.60;47.10;;;;;;5048414;28;20191;-69
2023/03/06 02:41:17;;;;;;;5.03;4.28;;;19.60;47.20;;;;;;5067266;28;20186;-69
2023/03/06 02:43:48;;;;;;;4.65;4.25;;;19.60;47.20;;;;;;5066768;28;20213;-68
2023/03/06 02:46:13;;;;;;;4.72;3.83;;;19.60;47.80;;;;;;5067269;28;20186;-69
2023/03/06 02:48:39;;;;;;;4.95;4.18;;;19.60;47.20;;;;;;5033867;28;20194;-69
2023/03/06 02:51:05;;;;;;;4.63;4.07;;;19.60;47.20;;;;;;5050566;28;20182;-69
2023/03/06 02:53:31;;;;;;;6.10;4.60;;;19.60;47.20;;;;;;5033148;28;20277;-68
2023/03/06 02:55:59;;;;;;;5.45;4.90;;;19.60;47.20;;;;;;5033954;28;20187;-69
2023/03/06 02:58:25;;;;;;;5.03;4.53;;;19.60;47.20;;;;;;5033849;28;20688;-68
2023/03/06 03:00:50;;;;;;;4.50;4.10;;;19.60;47.20;;;;;;5067124;28;20186;-68
2023/03/06 03:03:18;;;;;;;4.95;4.25;;;19.60;47.10;;;;;;5066802;28;20193;-68
2023/03/06 03:05:43;;;;;;;4.72;4.30;;;19.60;47.20;;;;;;5033556;28;20190;-68
2023/03/06 03:08:18;;;;;;;4.47;3.97;;;19.60;47.10;;;;;;5034955;28;20197;-68
2023/03/06 03:10:44;;;;;;;4.80;4.10;;;19.60;47.10;;;;;;5033695;28;20289;-68
2023/03/06 03:13:12;;;;;;;4.43;4.03;;;19.70;47.30;;;;;;5031804;28;20189;-69
2023/03/06 03:15:40;;;;;;;4.57;4.13;;;19.60;47.10;;;;;;5049808;28;20222;-69
2023/03/06 03:18:05;;;;;;;4.07;3.58;;;19.60;47.20;;;;;;5033500;28;20228;-68
2023/03/06 03:20:31;;;;;;;4.05;3.67;;;19.60;47.10;;;;;;5033565;28;20182;-68
2023/03/06 03:22:57;;;;;;;5.10;4.35;;;19.60;47.20;;;;;;5046083;28;20266;-68
2023/03/06 03:25:25;;;;;;;4.55;4.15;;;19.60;47.10;;;;;;5046924;28;20662;-68
2023/03/06 03:27:53;;;;;;;4.20;3.80;;;19.60;47.10;;;;;;5047529;28;20190;-68
2023/03/06 03:30:19;;;;;;;4.30;3.90;;;19.60;47.10;;;;;;5033596;28;20186;-70
2023/03/06 03:32:45;;;;;;;4.03;3.63;;;19.60;47.20;;;;;;5066545;28;20281;-69
2023/03/06 03:35:12;;;;;;;4.15;3.75;;;19.60;47.10;;;;;;5033125;28;20210;-69
2023/03/06 03:37:38;;;;;;;4.30;3.90;;;19.60;47.10;;;;;;5066572;28;20182;-69
2023/03/06 03:40:06;;;;;;;5.00;4.50;;;19.60;47.10;;;;;;5033373;28;20186;-69
2023/03/06 03:42:32;;;;;;;4.63;4.20;;;19.60;47.20;;;;;;5034363;28;20192;-69
2023/03/06 03:44:58;;;;;;;5.35;4.82;;;19.60;47.10;;;;;;5032090;28;20207;-69
2023/03/06 03:47:24;;;;;;;6.20;4.53;;;19.60;47.10;;;;;;5066541;28;20243;-69
2023/03/06 03:49:50;;;;;;;4.75;4.25;;;19.60;47.20;;;;;;5066409;28;20232;-68
2023/03/06 03:52:18;;;;;;;4.72;4.25;;;19.60;47.10;;;;;;5038227;28;20179;-69
2023/03/06 03:54:44;;;;;;;4.75;4.35;;;19.60;47.10;;;;;;5046251;28;20218;-69
2023/03/06 03:57:10;;;;;;;3.80;3.33;;;19.60;47.20;;;;;;5033071;28;20170;-68
2023/03/06 03:59:39;;;;;;;4.25;3.85;;;19.60;47.10;;;;;;5038239;28;20187;-68
2023/03/06 04:02:20;;;;;;;4.82;3.80;;;19.60;47.10;;;;;;5038205;28;20196;-68
2023/03/06 04:05:16;;;;;;;3.83;3.53;;;19.70;47.20;;;;;;5039157;28;20216;-69
2023/03/06 04:07:42;;;;;;;4.22;3.83;;;19.70;47.20;;;;;;5036552;28;20206;-69
2023/03/06 04:10:12;;;;;;;4.40;3.78;;;19.60;47.10;;;;;;5045347;28;20183;-69
2023/03/06 04:12:38;;;;;;;4.38;3.95;;;19.70;47.20;;;;;;5062990;28;20538;-68
2023/03/06 04:15:06;;;;;;;4.60;4.13;;;19.60;47.10;;;;;;5035591;28;20214;-68
2023/03/06 04:17:35;;;;;;;4.28;3.88;;;19.60;47.10;;;;;;5036458;28;20658;-68
2023/03/06 04:20:05;;;;;;;4.32;3.92;;;19.60;47.20;;;;;;5036594;28;20175;-68
2023/03/06 04:22:32;;;;;;;5.00;4.45;;;19.60;47.10;;;;;;5036479;28;20179;-68
2023/03/06 04:24:58;;;;;;;4.90;4.47;;;19.70;47.30;;;;;;5035474;28;20218;-68
2023/03/06 04:27:24;;;;;;;4.63;4.20;;;19.70;47.30;;;;;;5069313;28;20186;-69
2023/03/06 04:29:50;;;;;;;4.55;4.15;;;19.60;47.10;;;;;;5036106;28;20638;-68
2023/03/06 04:32:16;;;;;;;4.57;4.10;;;19.70;47.20;;;;;;5069737;28;20186;-68
2023/03/06 04:34:42;;;;;;;4.43;4.03;;;19.70;47.20;;;;;;5036283;28;20693;-69
2023/03/06 04:37:19;;;;;;;4.13;3.72;;;19.70;47.20;;;;;;5052388;28;20733;-70
2023/03/06 04:39:46;;;;;;;4.07;3.72;;;19.70;47.20;;;;;;5069520;28;20186;-68
2023/03/06 04:42:12;;;;;;;4.22;3.85;;;19.70;47.20;;;;;;5035742;28;20185;-68
2023/03/06 04:44:37;;;;;;;4.28;3.63;;;19.70;47.20;;;;;;5036064;28;20292;-69
2023/03/06 04:47:04;;;;;;;4.53;3.90;;;19.70;47.20;;;;;;5036119;28;20270;-69
2023/03/06 04:49:29;;;;;;;4.55;4.15;;;19.70;47.20;;;;;;5052532;28;20190;-68
2023/03/06 04:51:55;;;;;;;4.43;4.03;;;19.70;47.20;;;;;;5035870;28;20236;-69
2023/03/06 04:54:21;;;;;;;4.65;4.10;;;19.70;47.20;;;;;;5032529;28;20362;-68
2023/03/06 04:56:47;;;;;;;5.18;4.00;;;19.70;47.20;;;;;;5049120;28;20202;-69
2023/03/06 04:59:12;;;;;;;4.90;4.47;;;19.70;47.20;;;;;;5068832;28;20183;-69
2023/03/06 05:01:38;;;;;;;4.22;3.75;;;19.70;47.20;;;;;;5035760;28;20273;-69
2023/03/06 05:04:04;;;;;;;5.55;4.30;;;19.70;47.20;;;;;;5051948;28;20225;-68
2023/03/06 05:06:30;;;;;;;4.85;4.40;;;19.70;47.30;;;;;;5035538;28;20190;-68
2023/03/06 05:08:56;;;;;;;4.70;4.18;;;19.70;47.20;;;;;;5052231;28;20194;-68
2023/03/06 05:11:22;;;;;;;4.65;4.25;;;19.70;47.20;;;;;;5035713;28;20196;-68
2023/03/06 05:13:48;;;;;;;4.65;4.20;;;19.70;47.20;;;;;;5068592;28;20206;-68
2023/03/06 05:16:14;;;;;;;5.13;4.63;;;19.70;47.20;;;;;;5033003;28;20183;-68
2023/03/06 05:18:40;;;;;;;4.90;4.43;;;19.70;47.20;;;;;;5068671;28;20261;-69
2023/03/06 05:21:06;;;;;;;4.40;4.00;;;19.70;47.20;;;;;;5035301;28;20210;-68
2023/03/06 05:23:35;;;;;;;5.13;4.35;;;19.70;47.20;;;;;;5035524;28;20170;-68
2023/03/06 05:26:07;;;;;;;4.75;4.30;;;19.70;47.20;;;;;;5034724;28;20187;-68
2023/03/06 05:28:33;;;;;;;4.32;3.90;;;19.70;47.20;;;;;;5052497;28;20174;-68
2023/03/06 05:30:59;;;;;;;4.18;3.80;;;19.70;47.20;;;;;;5069376;28;20182;-68
2023/03/06 05:33:25;;;;;;;4.82;4.22;;;19.70;47.20;;;;;;5035614;28;20178;-68
2023/03/06 05:35:51;;;;;;;4.30;3.90;;;19.70;47.20;;;;;;5068968;28;20325;-68
2023/03/06 05:38:17;;;;;;;4.95;3.90;;;19.70;47.20;;;;;;5052157;28;20178;-69
2023/03/06 05:40:44;;;;;;;4.55;4.15;;;19.70;47.20;;;;;;5035856;28;20179;-68
2023/03/06 05:43:11;;;;;;;4.82;4.32;;;19.70;47.20;;;;;;5035492;28;20646;-68
2023/03/06 05:45:38;;;;;;;4.30;3.67;;;19.70;47.20;;;;;;5035124;28;20221;-68
2023/03/06 05:48:05;;;;;;;4.43;4.00;;;19.70;47.30;;;;;;5035299;28;20213;-68
2023/03/06 05:50:30;;;;;;;4.13;3.63;;;19.70;47.20;;;;;;5035454;28;20697;-68
2023/03/06 05:52:56;;;;;;;4.30;3.70;;;19.70;47.20;;;;;;5035487;28;20276;-68
2023/03/06 05:55:23;;;;;;;4.50;4.10;;;19.70;47.20;;;;;;5068321;28;20218;-68
2023/03/06 05:57:50;;;;;;;5.25;4.63;;;19.70;47.20;;;;;;5068285;28;20179;-69
2023/03/06 06:00:18;;;;;;;5.20;4.40;;;19.70;47.20;;;;;;5035152;28;20189;-68
2023/03/06 06:02:44;;;;;;;4.78;4.38;;;19.70;47.20;;;;;;5051952;28;20189;-69
2023/03/06 06:05:10;;;;;;;5.30;4.80;;;19.70;47.20;;;;;;5058700;22;20278;-71
2023/03/06 06:07:36;;;;;;;5.57;4.97;;;19.70;47.30;;;;;;5022927;28;20273;-73
2023/03/06 06:10:03;;;;;;;4.88;4.38;;;19.70;47.20;;;;;;5021929;28;20223;-73
2023/03/06 06:12:29;;;;;;;5.28;4.78;;;19.70;47.20;;;;;;5015417;28;20211;-73
2023/03/06 06:14:55;;;;;;;5.10;4.63;;;19.70;47.20;;;;;;5023360;28;20219;-73
2023/03/06 06:17:21;;;;;;;5.10;4.45;;;19.70;47.20;;;;;;5023553;28;20248;-73
2023/03/06 06:19:47;;;;;;;5.80;4.40;;;19.70;47.20;;;;;;5021559;28;20278;-73
2023/03/06 06:22:13;;;;;;;5.10;4.55;;;19.70;47.20;;;;;;5022203;28;20179;-73
2023/03/06 06:24:38;;;;;;;5.35;4.40;;;19.70;47.20;;;;;;5010949;28;20279;-73
2023/03/06 06:27:05;;;;;;;4.95;4.45;;;19.70;47.20;;;;;;5004910;28;20192;-75
2023/03/06 06:29:32;;;;;;;4.50;4.10;;;19.70;47.20;;;;;;5013903;28;20249;-73
2023/03/06 06:31:59;;;;;;;5.28;4.68;;;19.70;47.30;;;;;;5021715;28;20206;-74
2023/03/06 06:34:26;;;;;;;4.43;4.03;;;19.70;47.20;;;;;;5004086;28;20248;-73
2023/03/06 06:36:53;;;;;;;4.97;4.18;;;19.70;47.20;;;;;;5007498;28;20196;-73
2023/03/06 06:39:21;;;;;;;4.82;4.05;;;19.70;47.20;;;;;;5006655;28;20205;-73
2023/03/06 06:41:50;;;;;;;4.43;4.03;;;19.70;47.10;;;;;;5022923;28;20618;-72
2023/03/06 06:44:17;;;;;;;4.57;4.18;;;19.70;47.20;;;;;;5006040;28;20238;-72
2023/03/06 06:46:44;;;;;;;4.35;3.95;;;19.70;47.10;;;;;;5021657;28;20200;-72
2023/03/06 06:49:13;;;;;;;4.82;4.43;;;19.70;47.80;;;;;;5008744;28;20192;-72
2023/03/06 06:51:40;;;;;;;4.78;4.38;;;19.70;47.20;;;;;;5018081;28;20192;-73
2023/03/06 06:54:07;;;;;;;5.25;4.70;;;19.70;47.20;;;;;;5012366;28;20297;-72
2023/03/06 06:56:33;;;;;;;5.43;4.85;;;19.70;47.10;;;;;;5015837;28;20187;-72
2023/03/06 06:59:00;;;;;;;5.25;4.75;;;19.70;47.10;;;;;;5019442;28;20191;-72
2023/03/06 07:01:27;;;;;;;5.20;4.70;;;19.70;47.10;;;;;;5026845;28;20215;-72
2023/03/06 07:03:54;;;;;;;6.05;5.07;;;19.70;47.10;;;;;;5026793;28;20210;-72
2023/03/06 07:06:19;;;;;;;5.10;4.65;;;19.70;47.00;;;;;;5014548;28;20183;-72
2023/03/06 07:08:46;;;;;;;4.93;4.50;;;19.70;47.10;;;;;;5010748;28;20648;-73
2023/03/06 07:11:17;;;;;;;4.63;4.13;;;19.70;47.00;;;;;;5010786;28;20230;-72
2023/03/06 07:13:45;;;;;;;5.10;4.63;;;19.70;47.10;;;;;;5005895;28;20268;-72
2023/03/06 07:16:11;;;;;;;4.47;3.97;;;19.70;47.10;;;;;;5002049;28;20264;-72
2023/03/06 07:18:37;;;;;;;5.15;4.38;;;19.70;47.10;;;;;;5007962;28;20223;-72
2023/03/06 07:21:03;;;;;;;4.72;4.32;;;19.70;47.10;;;;;;5025230;28;20678;-72
2023/03/06 07:23:29;;;;;;;4.72;4.30;;;19.70;47.10;;;;;;5013545;28;20651;-72
2023/03/06 07:25:56;;;;;;;6.43;4.72;;;19.70;47.10;;;;;;5018640;28;20222;-72
2023/03/06 07:28:22;;;;;;;6.55;5.00;;;19.70;47.10;;;;;;4994446;28;20283;-73
2023/03/06 07:30:47;;;;;;;4.57;4.18;;;19.70;47.00;;;;;;5010656;28;20274;-72
2023/03/06 07:33:15;;;;;;;5.55;4.78;;;19.70;47.00;;;;;;5010350;28;20207;-72
2023/03/06 07:35:41;;;;;;;4.55;4.07;;;19.70;47.00;;;;;;5010374;28;20220;-72
2023/03/06 07:38:07;;;;;;;4.18;3.78;;;19.70;47.00;;;;;;5010511;28;20192;-72
2023/03/06 07:40:33;;;;;;;4.82;4.18;;;19.70;47.00;;;;;;5013088;28;20279;-72
2023/03/06 07:42:59;;;;;;;4.53;4.13;;;19.70;47.00;;;;;;5014512;28;20323;-72
2023/03/06 07:45:34;;;;;;;4.10;3.70;;;19.70;47.10;;;;;;5033932;28;20211;-72
2023/03/06 07:48:00;;;;;;;5.03;4.40;;;19.80;47.10;;;;;;5006850;28;20258;-72
2023/03/06 07:50:26;;;;;;;4.40;3.97;;;19.80;47.10;;;;;;5033863;28;20225;-72
2023/03/06 07:52:52;;;;;;;4.72;4.28;;;19.70;47.10;;;;;;5027144;28;20747;-72
2023/03/06 07:55:19;;;;;;;4.68;4.18;;;19.70;47.00;;;;;;5033768;28;20211;-72
2023/03/06 07:57:48;;;;;;;4.60;4.18;;;19.70;47.00;;;;;;5013832;28;20271;-72
2023/03/06 08:00:14;;;;;;;4.65;3.90;;;19.70;47.00;;;;;;5016379;28;20191;-72
2023/03/06 08:02:42;;;;;;;4.03;3.72;;;19.70;47.00;;;;;;5019163;28;20195;-72
2023/03/06 08:05:12;;;;;;;4.15;3.47;;;19.70;47.00;;;;;;5013541;28;20695;-72
2023/03/06 08:07:38;;;;;;;3.83;3.50;;;19.70;47.00;;;;;;4997483;28;20184;-72
2023/03/06 08:10:05;;;;;;;6.47;4.15;;;19.80;47.10;;;;;;5013494;28;20686;-72
2023/03/06 08:12:31;;;;;;;4.03;3.65;;;19.80;47.10;;;;;;5013972;28;20187;-72
2023/03/06 08:14:57;;;;;;;3.80;3.50;;;19.80;47.10;;;;;;4997228;28;20220;-72
2023/03/06 08:17:23;;;;;;;4.00;3.60;;;19.80;47.00;;;;;;5017133;28;20685;-72
2023/03/06 08:19:48;;;;;;;4.10;3.70;;;19.70;47.00;;;;;;5033117;28;20191;-72
2023/03/06 08:22:14;;;;;;;4.10;3.70;;;19.80;47.00;;;;;;5033236;28;20187;-72
2023/03/06 08:24:40;;;;;;;4.03;3.65;;;19.80;47.00;;;;;;5018905;28;20216;-73
2023/03/06 08:27:06;;;;;;;4.50;3.92;;;19.80;47.00;;;;;;5013344;28;20203;-72
2023/03/06 08:29:32;;;;;;;4.18;3.78;;;19.80;47.00;;;;;;5013324;28;20192;-72
2023/03/06 08:31:57;;;;;;;3.78;3.45;;;19.80;47.00;;;;;;5013613;28;20203;-73
2023/03/06 08:34:25;;;;;;;4.20;3.72;;;19.80;47.00;;;;;;5013151;28;20212;-74
2023/03/06 08:36:51;;;;;;;4.03;3.67;;;19.80;47.00;;;;;;4996815;28;20242;-72
2023/03/06 08:39:18;;;;;;;4.60;3.88;;;19.80;47.00;;;;;;5012889;28;20192;-73
2023/03/06 08:41:44;;;;;;;3.65;3.30;;;19.80;47.00;;;;;;5015917;28;20192;-72
2023/03/06 08:44:10;;;;;;;4.28;3.92;;;19.80;47.00;;;;;;5014498;28;20600;-72
2023/03/06 08:46:36;;;;;;;3.70;3.40;;;19.80;47.00;;;;;;5016060;28;20192;-73
2023/03/06 08:49:03;;;;;;;3.50;3.20;;;19.80;47.00;;;;;;5024354;28;20198;-72
2023/03/06 08:51:28;;;;;;;3.88;3.58;;;19.80;47.00;;;;;;5015510;28;20200;-72
2023/03/06 08:53:56;;;;;;;3.40;3.10;;;19.80;47.00;;;;;;5015978;28;20218;-73
2023/03/06 08:56:30;;;;;;;4.20;3.80;;;19.80;47.00;;;;;;5032362;28;20187;-73
2023/03/06 08:59:00;;;;;;;3.45;3.15;;;19.80;46.90;;;;;;5016480;28;20651;-73
2023/03/06 09:01:30;;;;;;;3.47;3.20;;;19.80;47.00;;;;;;5005002;28;20196;-72
2023/03/06 09:03:59;;;;;;;3.47;3.17;;;19.80;47.00;;;;;;5008757;28;20277;-72
2023/03/06 09:06:29;;;;;;;3.60;3.25;;;19.80;47.00;;;;;;5008292;28;20191;-73
2023/03/06 09:08:55;;;;;;;3.47;3.17;;;19.80;47.00;;;;;;5025000;28;20188;-72
2023/03/06 09:11:23;;;;;;;3.65;2.95;;;19.90;47.00;;;;;;5012596;28;20184;-72
2023/03/06 09:13:50;;;;;;;3.60;3.30;;;19.80;46.90;;;;;;5012416;28;20273;-72
2023/03/06 09:16:16;;;;;;;3.50;3.20;;;19.80;46.90;;;;;;5012290;28;20594;-72
2023/03/06 09:18:42;;;;;;;3.28;2.97;;;19.80;46.90;;;;;;5020054;28;20196;-73
2023/03/06 09:21:08;;;;;;;3.10;2.83;;;19.80;46.90;;;;;;5013399;28;20182;-72
2023/03/06 09:23:36;;;;;;;3.20;2.90;;;19.90;46.90;;;;;;5012529;28;20185;-72
2023/03/06 09:26:01;;;;;;;3.22;2.90;;;19.80;46.80;;;;;;5028594;28;20196;-72
2023/03/06 09:28:27;;;;;;;3.40;3.10;;;19.80;46.80;;;;;;5031995;28;20202;-72
2023/03/06 09:30:54;;;;;;;3.33;2.80;;;19.90;46.90;;;;;;5031822;28;20245;-72
2023/03/06 09:33:20;;;;;;;3.10;2.80;;;19.80;46.90;;;;;;5031975;28;20195;-73
2023/03/06 09:35:55;;;;;;;3.28;2.80;;;19.90;46.90;;;;;;5011900;28;20212;-72
2023/03/06 09:38:25;;;;;;;3.40;3.10;;;19.90;46.90;;;;;;5012181;28;20205;-73
2023/03/06 09:41:23;;;;;;;3.53;3.22;;;19.90;46.90;;;;;;5007155;28;20195;-72
2023/03/06 09:44:04;;;;;;;3.08;2.72;;;19.90;46.90;;;;;;5026516;28;20245;-72
2023/03/06 09:46:53;;;;;;;3.00;2.80;;;19.90;46.90;;;;;;5039439;28;20191;-72
2023/03/06 09:49:38;;;;;;;3.05;2.85;;;19.90;46.90;;;;;;5012443;28;20199;-72
2023/03/06 09:52:15;;;;;;;3.28;2.97;;;19.90;46.90;;;;;;5011961;28;20184;-72
2023/03/06 09:55:15;;;;;;;2.97;2.67;;;19.90;46.90;;;;;;5019063;28;20219;-73
2023/03/06 09:58:20;;;;;;;3.05;2.85;;;19.90;46.90;;;;;;5005397;28;20184;-73
2023/03/06 10:00:59;;;;;;;2.70;2.50;;;19.90;46.80;;;;;;5009372;28;20567;-72
2023/03/06 10:03:47;;;;;;;2.78;2.58;;;19.90;46.90;;;;;;5010718;28;20192;-73
2023/03/06 10:06:31;;;;;;;2.80;2.60;;;19.90;46.90;;;;;;5027378;28;20202;-72
2023/03/06 10:09:06;;;;;;;2.92;2.72;;;19.90;46.90;;;;;;5011679;28;20551;-72
2023/03/06 10:11:42;;;;;;;3.20;2.90;;;19.90;46.90;;;;;;5021038;28;20202;-73
2023/03/06 10:14:37;;;;;;;2.53;2.33;;;19.90;46.80;;;;;;5022252;28;20251;-73
2023/03/06 10:17:05;;;;;;;2.70;2.47;;;19.90;46.90;;;;;;5040102;28;20179;-73
2023/03/06 10:19:40;;;;;;;2.78;2.58;;;19.90;46.90;;;;;;5028370;28;20648;-73
2023/03/06 10:22:29;;;;;;;2.78;2.58;;;19.90;46.80;;;;;;5021437;28;20190;-72
2023/03/06 10:25:29;;;;;;;3.17;2.88;;;19.90;46.80;;;;;;5011969;28;20206;-73
2023/03/06 10:28:13;;;;;;;3.10;2.80;;;19.90;46.80;;;;;;5011998;28;20242;-73
2023/03/06 10:31:08;;;;;;;2.65;2.45;;;19.90;46.70;;;;;;5012592;28;20199;-73
2023/03/06 10:34:16;;;;;;;2.60;2.40;;;19.90;46.80;;;;;;5023419;28;20171;-73
2023/03/06 10:36:41;;;;;;;2.58;2.38;;;19.90;46.80;;;;;;5016922;28;20196;-72
2023/03/06 10:39:18;;;;;;;2.40;2.20;;;19.90;46.70;;;;;;5028463;28;20206;-73
2023/03/06 10:41:45;;;;;;;2.67;2.47;;;19.90;46.70;;;;;;5014810;28;20183;-73
2023/03/06 10:44:11;;;;;;;2.45;2.25;;;20.00;46.80;;;;;;5047759;28;20198;-73
2023/03/06 10:46:45;;;;;;;2.75;2.45;;;19.90;46.70;;;;;;5031377;28;20549;-73
2023/03/06 10:49:30;;;;;;;2.67;2.47;;;19.90;46.60;;;;;;5031464;28;20258;-73
2023/03/06 10:51:59;;;;;;;2.50;2.30;;;19.90;46.70;;;;;;5031531;28;20209;-73
2023/03/06 10:54:26;;;;;;;2.70;2.30;;;20.00;46.70;;;;;;5029729;28;20219;-73
2023/03/06 10:56:52;;;;;;;2.83;2.17;;;19.90;46.60;;;;;;5012554;28;20218;-73
2023/03/06 10:59:24;;;;;;;2.60;2.40;;;20.00;46.70;;;;;;5013196;28;20215;-73
2023/03/06 11:03:02;;;;;;;2.40;2.17;;;20.00;46.70;;;;;;5031444;28;20225;-73
2023/03/06 11:05:27;;;;;;;2.20;2.00;;;20.00;46.60;;;;;;4993416;28;20302;-73
2023/03/06 11:08:00;;;;;;;2.30;2.10;;;20.00;46.60;;;;;;4977728;28;20606;-74
2023/03/06 11:10:28;;;;;;;2.00;1.90;;;20.00;46.50;;;;;;5032037;28;20202;-73
2023/03/06 11:13:03;;;;;;;2.05;1.95;;;20.00;46.60;;;;;;5031361;28;20244;-72
2023/03/06 11:15:30;;;;;;;3.00;1.92;;;20.00;46.60;;;;;;5034509;28;20241;-72
2023/03/06 11:18:03;;;;;;;2.47;2.17;;;20.00;46.70;;;;;;5019961;28;20647;-73
2023/03/06 11:20:54;;;;;;;2.08;1.88;;;20.00;46.60;;;;;;5030167;28;20195;-73
2023/03/06 11:23:45;;;;;;;2.53;2.33;;;20.00;46.60;;;;;;5031271;28;20286;-73
2023/03/06 11:26:14;;;;;;;2.22;2.13;;;20.00;46.60;;;;;;5020426;28;20202;-74
2023/03/06 11:29:06;;;;;;;2.22;2.10;;;20.00;46.50;;;;;;4998982;28;20188;-72
2023/03/06 11:31:42;;;;;;;2.45;2.25;;;20.00;46.50;;;;;;5031400;28;20184;-72
2023/03/06 11:34:11;;;;;;;1.88;1.67;;;20.00;46.60;;;;;;4998492;28;20215;-72
2023/03/06 11:37:04;;;;;;;2.42;2.05;;;20.10;46.60;;;;;;5012257;28;20588;-72
2023/03/06 11:39:41;;;;;;;3.00;2.15;;;20.10;46.60;;;;;;5034683;28;20183;-72
2023/03/06 11:42:21;;;;;;;2.05;1.92;;;20.10;46.60;;;;;;5034432;28;20202;-72
2023/03/06 11:45:17;;;;;;;2.10;1.90;;;20.10;46.60;;;;;;5034844;28;20207;-72
2023/03/06 11:47:56;;;;;;;2.13;1.92;;;20.10;46.60;;;;;;5035703;28;20167;-73
2023/03/06 11:50:35;;;;;;;2.30;2.10;;;20.10;46.60;;;;;;5035863;28;20525;-73
2023/03/06 11:53:16;;;;;;;3.00;1.77;;;20.10;46.70;;;;;;5034348;28;20182;-73
2023/03/06 11:56:09;;;;;;;2.08;1.90;;;20.10;46.70;;;;;;5035757;28;20210;-73
2023/03/06 11:59:19;;;;;;;1.92;1.77;;;20.10;46.70;;;;;;5034377;28;20180;-73
2023/03/06 12:02:39;;;;;;;2.20;2.00;;;20.10;46.60;;;;;;5034594;28;20183;-73
2023/03/06 12:05:30;;;;;;;2.17;2.00;;;20.10;46.70;;;;;;5050481;22;20285;-69
2023/03/06 12:08:02;;;;;;;2.30;2.10;;;20.10;46.60;;;;;;5044250;28;20179;-69
2023/03/06 12:10:56;;;;;;;2.35;2.22;;;20.10;46.60;;;;;;5052902;28;20190;-69
2023/03/06 12:14:03;;;;;;;2.35;2.05;;;20.10;46.60;;;;;;5050817;28;20650;-69
2023/03/06 12:16:46;;;;;;;2.83;2.25;;;20.10;46.60;;;;;;5029254;28;20219;-68
2023/03/06 12:19:30;;;;;;;2.35;2.15;;;20.10;46.70;;;;;;5027776;28;20202;-69
2023/03/06 12:22:44;;;;;;;2.28;2.08;;;20.10;46.60;;;;;;5019911;28;20228;-69
2023/03/06 12:25:36;;;;;;;2.20;2.00;;;20.10;46.60;;;;;;5027799;28;20215;-68
2023/03/06 12:28:32;;;;;;;2.30;1.98;;;20.10;46.60;;;;;;5013045;28;20235;-69
2023/03/06 12:31:25;;;;;;;2.20;1.90;;;20.00;46.50;;;;;;5025566;28;20225;-69
2023/03/06 12:34:12;;;;;;;1.95;1.75;;;20.10;46.60;;;;;;5038059;28;20188;-69
2023/03/06 12:36:59;;;;;;;3.28;2.03;;;20.10;46.60;;;;;;5021817;28;20196;-70
2023/03/06 12:40:15;;;;;;;2.00;1.90;;;20.00;46.50;;;;;;5028986;28;20191;-69
2023/03/06 12:43:02;;;;;;;2.25;2.05;;;20.00;46.50;;;;;;5022208;28;20541;-69
2023/03/06 12:45:36;;;;;;;2.70;2.05;;;20.00;46.50;;;;;;5022064;28;20219;-68
2023/03/06 12:48:13;;;;;;;2.47;2.28;;;20.00;46.50;;;;;;5045785;28;20189;-69
2023/03/06 12:50:43;;;;;;;2.30;2.10;;;20.00;46.50;;;;;;5025350;28;20669;-69
2023/03/06 12:53:26;;;;;;;2.10;1.90;;;20.00;46.50;;;;;;5031485;28;20179;-68
2023/03/06 12:55:54;;;;;;;1.98;1.77;;;20.10;46.60;;;;;;5032867;28;20241;-68
2023/03/06 12:58:29;;;;;;;3.35;2.05;;;20.10;46.70;;;;;;5033433;28;20187;-69
2023/03/06 13:01:04;;;;;;;3.05;2.03;;;20.10;46.60;;;;;;5016565;28;20293;-69
2023/03/06 13:03:38;;;;;;;2.00;1.90;;;20.10;46.60;;;;;;5033944;28;20198;-69
2023/03/06 13:07:14;;;;;;;2.10;1.90;;;20.10;46.60;;;;;;5032684;28;20211;-69
2023/03/06 13:10:12;;;;;;;2.17;1.90;;;20.10;46.60;;;;;;5013134;28;20188;-69
2023/03/06 13:12:56;;;;;;;2.75;1.88;;;20.10;46.60;;;;;;5041252;28;20203;-69